sensor_id;sensor_type;location;lat;lon;timestamp;P1;durP1;ratioP1;P2;durP2;ratioP2
24163;SDS011;12319;49.204;8.116;2022-08-05T00:00:45;5.55;;;1.30;;
24163;SDS011;12319;49.204;8.116;2022-08-05T00:03:10;4.95;;;1.50;;
24163;SDS011;12319;49.204;8.116;2022-08-05T00:05:36;1.70;;;1.25;;
24163;SDS011;12319;49.204;8.116;2022-08-05T00:08:01;3.20;;;1.42;;
24163;SDS011;12319;49.204;8.116;2022-08-05T00:10:27;3.95;;;1.13;;
24163;SDS011;12319;49.204;8.116;2022-08-05T00:12:52;1.88;;;1.30;;
24163;SDS011;12319;49.204;8.116;2022-08-05T00:15:18;2.95;;;1.10;;
24163;SDS011;12319;49.204;8.116;2022-08-05T00:17:43;5.13;;;1.00;;
24163;SDS011;12319;49.204;8.116;2022-08-05T00:20:09;2.00;;;1.20;;
24163;SDS011;12319;49.204;8.116;2022-08-05T00:22:34;3.05;;;1.05;;
24163;SDS011;12319;49.204;8.116;2022-08-05T00:25:00;2.28;;;1.05;;
24163;SDS011;12319;49.204;8.116;2022-08-05T00:27:26;3.58;;;1.33;;
24163;SDS011;12319;49.204;8.116;2022-08-05T00:29:54;4.43;;;1.25;;
24163;SDS011;12319;49.204;8.116;2022-08-05T00:32:20;2.45;;;1.17;;
24163;SDS011;12319;49.204;8.116;2022-08-05T00:34:46;1.95;;;1.30;;
24163;SDS011;12319;49.204;8.116;2022-08-05T00:37:11;1.30;;;1.20;;
24163;SDS011;12319;49.204;8.116;2022-08-05T00:39:37;3.03;;;1.17;;
24163;SDS011;12319;49.204;8.116;2022-08-05T00:42:04;1.05;;;0.90;;
24163;SDS011;12319;49.204;8.116;2022-08-05T00:44:29;8.52;;;1.23;;
24163;SDS011;12319;49.204;8.116;2022-08-05T00:46:55;1.33;;;1.10;;
24163;SDS011;12319;49.204;8.116;2022-08-05T00:49:20;2.22;;;1.05;;
24163;SDS011;12319;49.204;8.116;2022-08-05T00:51:46;1.15;;;1.08;;
24163;SDS011;12319;49.204;8.116;2022-08-05T00:54:12;1.35;;;1.10;;
24163;SDS011;12319;49.204;8.116;2022-08-05T00:56:38;1.30;;;1.15;;
24163;SDS011;12319;49.204;8.116;2022-08-05T00:59:04;4.50;;;0.82;;
24163;SDS011;12319;49.204;8.116;2022-08-05T01:01:30;1.40;;;0.98;;
24163;SDS011;12319;49.204;8.116;2022-08-05T01:03:55;1.67;;;1.00;;
24163;SDS011;12319;49.204;8.116;2022-08-05T01:06:21;1.52;;;1.00;;
24163;SDS011;12319;49.204;8.116;2022-08-05T01:08:47;2.35;;;0.95;;
24163;SDS011;12319;49.204;8.116;2022-08-05T01:11:15;2.80;;;0.95;;
24163;SDS011;12319;49.204;8.116;2022-08-05T01:13:52;0.88;;;0.88;;
24163;SDS011;12319;49.204;8.116;2022-08-05T01:16:46;1.33;;;0.90;;
24163;SDS011;12319;49.204;8.116;2022-08-05T01:21:49;1.65;;;1.00;;
24163;SDS011;12319;49.204;8.116;2022-08-05T01:24:34;1.30;;;1.00;;
24163;SDS011;12319;49.204;8.116;2022-08-05T01:30:25;1.27;;;1.00;;
24163;SDS011;12319;49.204;8.116;2022-08-05T01:32:53;1.13;;;1.00;;
24163;SDS011;12319;49.204;8.116;2022-08-05T01:35:24;1.52;;;1.02;;
24163;SDS011;12319;49.204;8.116;2022-08-05T01:37:53;2.25;;;1.20;;
24163;SDS011;12319;49.204;8.116;2022-08-05T01:40:21;4.40;;;1.10;;
24163;SDS011;12319;49.204;8.116;2022-08-05T01:42:50;1.10;;;0.90;;
24163;SDS011;12319;49.204;8.116;2022-08-05T01:45:16;1.27;;;1.10;;
24163;SDS011;12319;49.204;8.116;2022-08-05T01:47:44;4.47;;;1.20;;
24163;SDS011;12319;49.204;8.116;2022-08-05T01:50:16;1.85;;;0.98;;
24163;SDS011;12319;49.204;8.116;2022-08-05T01:52:45;0.90;;;0.90;;
24163;SDS011;12319;49.204;8.116;2022-08-05T01:55:12;0.95;;;0.90;;
24163;SDS011;12319;49.204;8.116;2022-08-05T01:57:42;1.30;;;1.00;;
24163;SDS011;12319;49.204;8.116;2022-08-05T02:00:10;1.00;;;0.90;;
24163;SDS011;12319;49.204;8.116;2022-08-05T02:02:43;1.65;;;1.13;;
24163;SDS011;12319;49.204;8.116;2022-08-05T02:05:16;1.58;;;1.00;;
24163;SDS011;12319;49.204;8.116;2022-08-05T02:07:44;1.48;;;0.90;;
24163;SDS011;12319;49.204;8.116;2022-08-05T02:10:09;1.17;;;1.00;;
24163;SDS011;12319;49.204;8.116;2022-08-05T02:12:37;1.20;;;0.90;;
24163;SDS011;12319;49.204;8.116;2022-08-05T02:15:21;1.30;;;0.90;;
24163;SDS011;12319;49.204;8.116;2022-08-05T02:17:51;3.03;;;1.10;;
24163;SDS011;12319;49.204;8.116;2022-08-05T02:20:29;1.00;;;1.00;;
24163;SDS011;12319;49.204;8.116;2022-08-05T02:23:00;2.70;;;1.02;;
24163;SDS011;12319;49.204;8.116;2022-08-05T02:25:35;0.90;;;0.90;;
24163;SDS011;12319;49.204;8.116;2022-08-05T02:28:04;2.05;;;0.80;;
24163;SDS011;12319;49.204;8.116;2022-08-05T02:30:35;2.55;;;1.10;;
24163;SDS011;12319;49.204;8.116;2022-08-05T02:33:04;1.67;;;0.82;;
24163;SDS011;12319;49.204;8.116;2022-08-05T02:35:33;1.15;;;1.00;;
24163;SDS011;12319;49.204;8.116;2022-08-05T02:38:01;1.08;;;0.95;;
24163;SDS011;12319;49.204;8.116;2022-08-05T02:40:28;1.95;;;0.90;;
24163;SDS011;12319;49.204;8.116;2022-08-05T02:42:55;1.52;;;1.00;;
24163;SDS011;12319;49.204;8.116;2022-08-05T02:45:21;1.00;;;0.90;;
24163;SDS011;12319;49.204;8.116;2022-08-05T02:47:49;2.60;;;0.98;;
24163;SDS011;12319;49.204;8.116;2022-08-05T02:50:18;1.42;;;0.95;;
24163;SDS011;12319;49.204;8.116;2022-08-05T02:52:46;4.05;;;1.13;;
24163;SDS011;12319;49.204;8.116;2022-08-05T02:55:12;5.28;;;1.10;;
24163;SDS011;12319;49.204;8.116;2022-08-05T02:57:39;1.23;;;0.95;;
24163;SDS011;12319;49.204;8.116;2022-08-05T03:00:06;1.13;;;0.88;;
24163;SDS011;12319;49.204;8.116;2022-08-05T03:02:35;1.42;;;1.08;;
24163;SDS011;12319;49.204;8.116;2022-08-05T03:05:03;2.22;;;1.00;;
24163;SDS011;12319;49.204;8.116;2022-08-05T03:07:31;3.95;;;1.27;;
24163;SDS011;12319;49.204;8.116;2022-08-05T03:09:58;0.98;;;0.90;;
24163;SDS011;12319;49.204;8.116;2022-08-05T03:12:36;1.70;;;1.00;;
24163;SDS011;12319;49.204;8.116;2022-08-05T03:15:04;1.58;;;1.05;;
24163;SDS011;12319;49.204;8.116;2022-08-05T03:17:31;1.23;;;0.98;;
24163;SDS011;12319;49.204;8.116;2022-08-05T03:19:56;2.25;;;1.35;;
24163;SDS011;12319;49.204;8.116;2022-08-05T03:22:22;1.08;;;0.95;;
24163;SDS011;12319;49.204;8.116;2022-08-05T03:24:48;1.20;;;0.95;;
24163;SDS011;12319;49.204;8.116;2022-08-05T03:27:15;1.45;;;1.10;;
24163;SDS011;12319;49.204;8.116;2022-08-05T03:29:42;1.48;;;0.93;;
24163;SDS011;12319;49.204;8.116;2022-08-05T03:32:08;0.95;;;0.90;;
24163;SDS011;12319;49.204;8.116;2022-08-05T03:34:34;2.28;;;1.00;;
24163;SDS011;12319;49.204;8.116;2022-08-05T03:37:00;1.40;;;1.00;;
24163;SDS011;12319;49.204;8.116;2022-08-05T03:39:27;1.42;;;1.20;;
24163;SDS011;12319;49.204;8.116;2022-08-05T03:41:53;2.10;;;1.13;;
24163;SDS011;12319;49.204;8.116;2022-08-05T03:44:19;1.05;;;0.73;;
24163;SDS011;12319;49.204;8.116;2022-08-05T03:46:45;3.08;;;1.23;;
24163;SDS011;12319;49.204;8.116;2022-08-05T03:49:10;1.55;;;0.93;;
24163;SDS011;12319;49.204;8.116;2022-08-05T03:51:37;1.38;;;0.82;;
24163;SDS011;12319;49.204;8.116;2022-08-05T03:54:09;2.47;;;1.10;;
24163;SDS011;12319;49.204;8.116;2022-08-05T03:56:41;0.90;;;0.80;;
24163;SDS011;12319;49.204;8.116;2022-08-05T03:59:09;1.63;;;1.00;;
24163;SDS011;12319;49.204;8.116;2022-08-05T04:01:41;1.63;;;0.98;;
24163;SDS011;12319;49.204;8.116;2022-08-05T04:04:12;1.13;;;1.00;;
24163;SDS011;12319;49.204;8.116;2022-08-05T04:06:38;1.23;;;1.00;;
24163;SDS011;12319;49.204;8.116;2022-08-05T04:09:05;2.28;;;1.10;;
24163;SDS011;12319;49.204;8.116;2022-08-05T04:11:32;1.05;;;0.90;;
24163;SDS011;12319;49.204;8.116;2022-08-05T04:13:59;1.75;;;1.00;;
24163;SDS011;12319;49.204;8.116;2022-08-05T04:16:24;2.15;;;1.00;;
24163;SDS011;12319;49.204;8.116;2022-08-05T04:18:50;2.13;;;1.13;;
24163;SDS011;12319;49.204;8.116;2022-08-05T04:21:16;0.95;;;0.85;;
24163;SDS011;12319;49.204;8.116;2022-08-05T04:23:42;1.23;;;0.90;;
24163;SDS011;12319;49.204;8.116;2022-08-05T04:26:08;1.10;;;0.90;;
24163;SDS011;12319;49.204;8.116;2022-08-05T04:28:34;0.90;;;0.90;;
24163;SDS011;12319;49.204;8.116;2022-08-05T04:30:59;1.00;;;0.90;;
24163;SDS011;12319;49.204;8.116;2022-08-05T04:33:25;1.23;;;0.90;;
24163;SDS011;12319;49.204;8.116;2022-08-05T04:35:51;1.05;;;0.93;;
24163;SDS011;12319;49.204;8.116;2022-08-05T04:38:17;1.55;;;0.80;;
24163;SDS011;12319;49.204;8.116;2022-08-05T04:40:42;0.88;;;0.88;;
24163;SDS011;12319;49.204;8.116;2022-08-05T04:43:08;0.98;;;0.90;;
24163;SDS011;12319;49.204;8.116;2022-08-05T04:45:34;1.20;;;1.10;;
24163;SDS011;12319;49.204;8.116;2022-08-05T04:48:06;1.23;;;0.90;;
24163;SDS011;12319;49.204;8.116;2022-08-05T04:50:37;1.45;;;0.70;;
24163;SDS011;12319;49.204;8.116;2022-08-05T04:53:06;1.08;;;0.75;;
24163;SDS011;12319;49.204;8.116;2022-08-05T04:55:34;1.13;;;0.90;;
24163;SDS011;12319;49.204;8.116;2022-08-05T04:58:03;1.88;;;1.20;;
24163;SDS011;12319;49.204;8.116;2022-08-05T05:00:30;1.10;;;1.00;;
24163;SDS011;12319;49.204;8.116;2022-08-05T05:02:56;1.00;;;0.80;;
24163;SDS011;12319;49.204;8.116;2022-08-05T05:05:21;0.95;;;0.90;;
24163;SDS011;12319;49.204;8.116;2022-08-05T05:07:47;0.95;;;0.90;;
24163;SDS011;12319;49.204;8.116;2022-08-05T05:10:13;0.80;;;0.75;;
24163;SDS011;12319;49.204;8.116;2022-08-05T05:12:38;0.90;;;0.73;;
24163;SDS011;12319;49.204;8.116;2022-08-05T05:15:04;1.35;;;0.80;;
24163;SDS011;12319;49.204;8.116;2022-08-05T05:17:39;1.30;;;0.80;;
24163;SDS011;12319;49.204;8.116;2022-08-05T05:20:08;0.70;;;0.70;;
24163;SDS011;12319;49.204;8.116;2022-08-05T05:22:35;1.85;;;0.93;;
24163;SDS011;12319;49.204;8.116;2022-08-05T05:25:02;1.10;;;0.88;;
24163;SDS011;12319;49.204;8.116;2022-08-05T05:27:29;0.80;;;0.70;;
24163;SDS011;12319;49.204;8.116;2022-08-05T05:29:56;0.95;;;0.80;;
24163;SDS011;12319;49.204;8.116;2022-08-05T05:32:22;0.80;;;0.80;;
24163;SDS011;12319;49.204;8.116;2022-08-05T05:34:47;0.95;;;0.80;;
24163;SDS011;12319;49.204;8.116;2022-08-05T05:37:13;0.80;;;0.80;;
24163;SDS011;12319;49.204;8.116;2022-08-05T05:39:39;0.80;;;0.80;;
24163;SDS011;12319;49.204;8.116;2022-08-05T05:42:05;0.95;;;0.60;;
24163;SDS011;12319;49.204;8.116;2022-08-05T05:44:30;1.35;;;0.70;;
24163;SDS011;12319;49.204;8.116;2022-08-05T05:46:56;1.45;;;1.10;;
24163;SDS011;12319;49.204;8.116;2022-08-05T05:49:22;1.40;;;1.30;;
24163;SDS011;12319;49.204;8.116;2022-08-05T05:51:48;1.40;;;0.93;;
24163;SDS011;12319;49.204;8.116;2022-08-05T05:54:13;2.50;;;0.95;;
24163;SDS011;12319;49.204;8.116;2022-08-05T05:56:39;1.00;;;0.85;;
24163;SDS011;12319;49.204;8.116;2022-08-05T05:59:05;0.90;;;0.80;;
24163;SDS011;12319;49.204;8.116;2022-08-05T06:01:34;1.13;;;0.75;;
24163;SDS011;12319;49.204;8.116;2022-08-05T06:04:01;1.05;;;0.90;;
24163;SDS011;12319;49.204;8.116;2022-08-05T06:06:27;0.70;;;0.70;;
24163;SDS011;12319;49.204;8.116;2022-08-05T06:08:53;1.33;;;0.90;;
24163;SDS011;12319;49.204;8.116;2022-08-05T06:11:19;1.30;;;0.98;;
24163;SDS011;12319;49.204;8.116;2022-08-05T06:13:44;0.70;;;0.70;;
24163;SDS011;12319;49.204;8.116;2022-08-05T06:16:10;1.63;;;0.90;;
24163;SDS011;12319;49.204;8.116;2022-08-05T06:18:35;1.08;;;0.90;;
24163;SDS011;12319;49.204;8.116;2022-08-05T06:21:01;1.58;;;0.80;;
24163;SDS011;12319;49.204;8.116;2022-08-05T06:23:27;0.80;;;0.80;;
24163;SDS011;12319;49.204;8.116;2022-08-05T06:25:53;1.20;;;1.20;;
24163;SDS011;12319;49.204;8.116;2022-08-05T06:28:18;1.27;;;1.00;;
24163;SDS011;12319;49.204;8.116;2022-08-05T06:30:44;1.33;;;0.93;;
24163;SDS011;12319;49.204;8.116;2022-08-05T06:33:09;1.50;;;1.40;;
24163;SDS011;12319;49.204;8.116;2022-08-05T06:35:35;1.30;;;1.20;;
24163;SDS011;12319;49.204;8.116;2022-08-05T06:38:00;1.08;;;1.08;;
24163;SDS011;12319;49.204;8.116;2022-08-05T06:40:26;1.45;;;1.35;;
24163;SDS011;12319;49.204;8.116;2022-08-05T06:42:51;1.75;;;1.38;;
24163;SDS011;12319;49.204;8.116;2022-08-05T06:45:17;1.67;;;1.58;;
24163;SDS011;12319;49.204;8.116;2022-08-05T06:47:43;1.83;;;1.73;;
24163;SDS011;12319;49.204;8.116;2022-08-05T06:50:08;1.70;;;1.60;;
24163;SDS011;12319;49.204;8.116;2022-08-05T06:52:33;1.70;;;1.60;;
24163;SDS011;12319;49.204;8.116;2022-08-05T06:54:59;1.65;;;1.55;;
24163;SDS011;12319;49.204;8.116;2022-08-05T06:57:25;1.42;;;1.33;;
24163;SDS011;12319;49.204;8.116;2022-08-05T06:59:50;1.65;;;1.52;;
24163;SDS011;12319;49.204;8.116;2022-08-05T07:02:16;1.70;;;1.60;;
24163;SDS011;12319;49.204;8.116;2022-08-05T07:04:41;1.92;;;1.63;;
24163;SDS011;12319;49.204;8.116;2022-08-05T07:07:07;1.48;;;1.40;;
24163;SDS011;12319;49.204;8.116;2022-08-05T07:09:32;1.48;;;1.35;;
24163;SDS011;12319;49.204;8.116;2022-08-05T07:11:58;1.00;;;1.00;;
24163;SDS011;12319;49.204;8.116;2022-08-05T07:14:24;1.10;;;1.00;;
24163;SDS011;12319;49.204;8.116;2022-08-05T07:17:08;1.13;;;1.10;;
24163;SDS011;12319;49.204;8.116;2022-08-05T07:19:33;0.90;;;0.90;;
24163;SDS011;12319;49.204;8.116;2022-08-05T07:21:59;1.08;;;1.00;;
24163;SDS011;12319;49.204;8.116;2022-08-05T07:24:25;1.48;;;1.00;;
24163;SDS011;12319;49.204;8.116;2022-08-05T07:26:50;1.00;;;0.80;;
24163;SDS011;12319;49.204;8.116;2022-08-05T07:29:16;0.98;;;0.98;;
24163;SDS011;12319;49.204;8.116;2022-08-05T07:31:41;1.00;;;0.90;;
24163;SDS011;12319;49.204;8.116;2022-08-05T07:34:07;1.25;;;0.95;;
24163;SDS011;12319;49.204;8.116;2022-08-05T07:36:33;0.90;;;0.90;;
24163;SDS011;12319;49.204;8.116;2022-08-05T07:38:59;1.23;;;0.85;;
24163;SDS011;12319;49.204;8.116;2022-08-05T07:41:26;1.15;;;1.05;;
24163;SDS011;12319;49.204;8.116;2022-08-05T07:43:52;1.55;;;1.10;;
24163;SDS011;12319;49.204;8.116;2022-08-05T07:46:19;1.23;;;0.93;;
24163;SDS011;12319;49.204;8.116;2022-08-05T07:48:44;1.83;;;0.90;;
24163;SDS011;12319;49.204;8.116;2022-08-05T07:51:10;0.93;;;0.90;;
24163;SDS011;12319;49.204;8.116;2022-08-05T07:53:36;1.00;;;0.90;;
24163;SDS011;12319;49.204;8.116;2022-08-05T07:56:02;1.58;;;0.82;;
24163;SDS011;12319;49.204;8.116;2022-08-05T07:58:28;2.85;;;0.90;;
24163;SDS011;12319;49.204;8.116;2022-08-05T08:00:54;1.45;;;0.85;;
24163;SDS011;12319;49.204;8.116;2022-08-05T08:03:19;2.13;;;0.90;;
24163;SDS011;12319;49.204;8.116;2022-08-05T08:05:45;0.75;;;0.60;;
24163;SDS011;12319;49.204;8.116;2022-08-05T08:08:10;1.05;;;0.88;;
24163;SDS011;12319;49.204;8.116;2022-08-05T08:10:38;1.40;;;0.90;;
24163;SDS011;12319;49.204;8.116;2022-08-05T08:13:04;1.00;;;0.90;;
24163;SDS011;12319;49.204;8.116;2022-08-05T08:15:30;1.35;;;0.90;;
24163;SDS011;12319;49.204;8.116;2022-08-05T08:17:55;0.70;;;0.70;;
24163;SDS011;12319;49.204;8.116;2022-08-05T08:20:21;0.77;;;0.73;;
24163;SDS011;12319;49.204;8.116;2022-08-05T08:22:51;1.20;;;0.80;;
24163;SDS011;12319;49.204;8.116;2022-08-05T08:25:23;0.93;;;0.90;;
24163;SDS011;12319;49.204;8.116;2022-08-05T08:27:49;0.80;;;0.80;;
24163;SDS011;12319;49.204;8.116;2022-08-05T08:30:15;1.35;;;1.10;;
24163;SDS011;12319;49.204;8.116;2022-08-05T08:32:41;0.98;;;0.98;;
24163;SDS011;12319;49.204;8.116;2022-08-05T08:35:07;1.00;;;0.90;;
24163;SDS011;12319;49.204;8.116;2022-08-05T08:37:33;0.80;;;0.80;;
24163;SDS011;12319;49.204;8.116;2022-08-05T08:39:59;0.90;;;0.90;;
24163;SDS011;12319;49.204;8.116;2022-08-05T08:42:24;0.65;;;0.65;;
24163;SDS011;12319;49.204;8.116;2022-08-05T08:44:52;0.90;;;0.85;;
24163;SDS011;12319;49.204;8.116;2022-08-05T08:47:21;0.80;;;0.80;;
24163;SDS011;12319;49.204;8.116;2022-08-05T08:49:48;0.70;;;0.70;;
24163;SDS011;12319;49.204;8.116;2022-08-05T08:52:18;1.23;;;0.93;;
24163;SDS011;12319;49.204;8.116;2022-08-05T08:54:52;0.95;;;0.80;;
24163;SDS011;12319;49.204;8.116;2022-08-05T08:57:18;1.08;;;0.70;;
24163;SDS011;12319;49.204;8.116;2022-08-05T08:59:43;0.65;;;0.60;;
24163;SDS011;12319;49.204;8.116;2022-08-05T09:02:09;1.48;;;0.88;;
24163;SDS011;12319;49.204;8.116;2022-08-05T09:04:36;1.00;;;0.90;;
24163;SDS011;12319;49.204;8.116;2022-08-05T09:07:06;1.25;;;0.70;;
24163;SDS011;12319;49.204;8.116;2022-08-05T09:09:35;0.90;;;0.88;;
24163;SDS011;12319;49.204;8.116;2022-08-05T09:12:02;0.70;;;0.70;;
24163;SDS011;12319;49.204;8.116;2022-08-05T09:14:30;0.70;;;0.70;;
24163;SDS011;12319;49.204;8.116;2022-08-05T09:16:57;1.27;;;0.77;;
24163;SDS011;12319;49.204;8.116;2022-08-05T09:19:28;0.75;;;0.75;;
24163;SDS011;12319;49.204;8.116;2022-08-05T09:21:54;0.80;;;0.80;;
24163;SDS011;12319;49.204;8.116;2022-08-05T09:24:19;1.20;;;0.77;;
24163;SDS011;12319;49.204;8.116;2022-08-05T09:26:46;1.20;;;1.10;;
24163;SDS011;12319;49.204;8.116;2022-08-05T09:29:15;0.77;;;0.70;;
24163;SDS011;12319;49.204;8.116;2022-08-05T09:31:40;1.20;;;0.80;;
24163;SDS011;12319;49.204;8.116;2022-08-05T09:34:09;0.73;;;0.70;;
24163;SDS011;12319;49.204;8.116;2022-08-05T09:36:45;0.95;;;0.80;;
24163;SDS011;12319;49.204;8.116;2022-08-05T09:39:13;0.75;;;0.73;;
24163;SDS011;12319;49.204;8.116;2022-08-05T09:42:02;1.10;;;1.00;;
24163;SDS011;12319;49.204;8.116;2022-08-05T09:47:06;1.08;;;0.95;;
24163;SDS011;12319;49.204;8.116;2022-08-05T09:49:33;1.10;;;0.90;;
24163;SDS011;12319;49.204;8.116;2022-08-05T09:51:58;0.93;;;0.93;;
24163;SDS011;12319;49.204;8.116;2022-08-05T09:55:04;1.98;;;0.85;;
24163;SDS011;12319;49.204;8.116;2022-08-05T10:00:11;0.82;;;0.82;;
24163;SDS011;12319;49.204;8.116;2022-08-05T10:02:40;0.82;;;0.82;;
24163;SDS011;12319;49.204;8.116;2022-08-05T10:05:09;0.73;;;0.73;;
24163;SDS011;12319;49.204;8.116;2022-08-05T10:07:46;1.08;;;1.00;;
24163;SDS011;12319;49.204;8.116;2022-08-05T10:10:13;1.30;;;0.90;;
24163;SDS011;12319;49.204;8.116;2022-08-05T10:12:44;1.85;;;1.10;;
24163;SDS011;12319;49.204;8.116;2022-08-05T10:15:19;1.58;;;1.00;;
24163;SDS011;12319;49.204;8.116;2022-08-05T10:18:05;1.55;;;0.88;;
24163;SDS011;12319;49.204;8.116;2022-08-05T10:20:36;1.10;;;1.00;;
24163;SDS011;12319;49.204;8.116;2022-08-05T10:23:15;1.08;;;0.98;;
24163;SDS011;12319;49.204;8.116;2022-08-05T10:25:49;0.90;;;0.90;;
24163;SDS011;12319;49.204;8.116;2022-08-05T10:28:15;1.35;;;0.82;;
24163;SDS011;12319;49.204;8.116;2022-08-05T10:30:41;0.70;;;0.70;;
24163;SDS011;12319;49.204;8.116;2022-08-05T10:33:07;0.90;;;0.80;;
24163;SDS011;12319;49.204;8.116;2022-08-05T10:35:33;0.85;;;0.85;;
24163;SDS011;12319;49.204;8.116;2022-08-05T10:37:59;1.20;;;0.90;;
24163;SDS011;12319;49.204;8.116;2022-08-05T10:40:34;2.00;;;0.80;;
24163;SDS011;12319;49.204;8.116;2022-08-05T10:43:08;2.45;;;0.80;;
24163;SDS011;12319;49.204;8.116;2022-08-05T10:45:54;0.70;;;0.70;;
24163;SDS011;12319;49.204;8.116;2022-08-05T10:48:34;1.38;;;0.90;;
24163;SDS011;12319;49.204;8.116;2022-08-05T10:51:23;1.23;;;0.88;;
24163;SDS011;12319;49.204;8.116;2022-08-05T10:56:25;1.38;;;0.95;;
24163;SDS011;12319;49.204;8.116;2022-08-05T11:01:28;1.20;;;1.00;;
24163;SDS011;12319;49.204;8.116;2022-08-05T11:06:31;0.88;;;0.88;;
24163;SDS011;12319;49.204;8.116;2022-08-05T11:09:17;1.10;;;0.90;;
24163;SDS011;12319;49.204;8.116;2022-08-05T11:11:45;0.80;;;0.80;;
24163;SDS011;12319;49.204;8.116;2022-08-05T11:14:21;0.63;;;0.63;;
24163;SDS011;12319;49.204;8.116;2022-08-05T11:19:58;1.00;;;0.90;;
24163;SDS011;12319;49.204;8.116;2022-08-05T11:22:43;1.00;;;0.95;;
24163;SDS011;12319;49.204;8.116;2022-08-05T11:36:08;1.00;;;1.00;;
24163;SDS011;12319;49.204;8.116;2022-08-05T11:41:03;1.35;;;1.25;;
24163;SDS011;12319;49.204;8.116;2022-08-05T11:43:30;1.30;;;1.20;;
24163;SDS011;12319;49.204;8.116;2022-08-05T11:45:57;1.52;;;1.02;;
24163;SDS011;12319;49.204;8.116;2022-08-05T11:48:23;1.40;;;1.10;;
24163;SDS011;12319;49.204;8.116;2022-08-05T11:50:50;1.08;;;0.90;;
24163;SDS011;12319;49.204;8.116;2022-08-05T11:53:16;0.93;;;0.90;;
24163;SDS011;12319;49.204;8.116;2022-08-05T11:55:52;1.08;;;0.90;;
24163;SDS011;12319;49.204;8.116;2022-08-05T11:58:23;1.10;;;1.00;;
24163;SDS011;12319;49.204;8.116;2022-08-05T12:01:00;1.40;;;1.13;;
24163;SDS011;12319;49.204;8.116;2022-08-05T12:03:48;1.08;;;1.08;;
24163;SDS011;12319;49.204;8.116;2022-08-05T12:06:20;1.30;;;1.20;;
24163;SDS011;12319;49.204;8.116;2022-08-05T12:08:52;1.20;;;1.10;;
24163;SDS011;12319;49.204;8.116;2022-08-05T12:11:28;1.00;;;1.00;;
24163;SDS011;12319;49.204;8.116;2022-08-05T12:13:58;2.17;;;1.15;;
24163;SDS011;12319;49.204;8.116;2022-08-05T12:16:26;1.73;;;1.20;;
24163;SDS011;12319;49.204;8.116;2022-08-05T12:18:55;1.63;;;1.23;;
24163;SDS011;12319;49.204;8.116;2022-08-05T12:21:22;2.65;;;1.30;;
24163;SDS011;12319;49.204;8.116;2022-08-05T12:23:56;1.48;;;1.10;;
24163;SDS011;12319;49.204;8.116;2022-08-05T12:29:12;2.85;;;1.33;;
24163;SDS011;12319;49.204;8.116;2022-08-05T12:31:42;1.63;;;1.40;;
24163;SDS011;12319;49.204;8.116;2022-08-05T12:34:11;1.48;;;1.38;;
24163;SDS011;12319;49.204;8.116;2022-08-05T12:36:37;1.23;;;1.13;;
24163;SDS011;12319;49.204;8.116;2022-08-05T12:39:04;1.35;;;1.20;;
24163;SDS011;12319;49.204;8.116;2022-08-05T12:41:34;1.55;;;1.17;;
24163;SDS011;12319;49.204;8.116;2022-08-05T12:44:10;1.48;;;1.38;;
24163;SDS011;12319;49.204;8.116;2022-08-05T12:46:38;1.65;;;1.40;;
24163;SDS011;12319;49.204;8.116;2022-08-05T12:49:09;1.35;;;1.25;;
24163;SDS011;12319;49.204;8.116;2022-08-05T12:54:29;1.20;;;1.20;;
24163;SDS011;12319;49.204;8.116;2022-08-05T12:59:24;1.10;;;1.00;;
24163;SDS011;12319;49.204;8.116;2022-08-05T13:02:05;1.30;;;1.20;;
24163;SDS011;12319;49.204;8.116;2022-08-05T13:04:32;1.30;;;1.20;;
24163;SDS011;12319;49.204;8.116;2022-08-05T13:07:01;1.10;;;1.10;;
24163;SDS011;12319;49.204;8.116;2022-08-05T13:09:29;1.83;;;1.30;;
24163;SDS011;12319;49.204;8.116;2022-08-05T13:12:05;1.88;;;1.17;;
24163;SDS011;12319;49.204;8.116;2022-08-05T13:14:36;1.30;;;1.20;;
24163;SDS011;12319;49.204;8.116;2022-08-05T13:17:15;1.40;;;1.30;;
24163;SDS011;12319;49.204;8.116;2022-08-05T13:19:56;1.50;;;1.40;;
24163;SDS011;12319;49.204;8.116;2022-08-05T13:22:25;1.40;;;1.20;;
24163;SDS011;12319;49.204;8.116;2022-08-05T13:24:51;1.38;;;1.27;;
24163;SDS011;12319;49.204;8.116;2022-08-05T13:27:33;1.10;;;1.10;;
24163;SDS011;12319;49.204;8.116;2022-08-05T13:29:59;1.33;;;1.23;;
24163;SDS011;12319;49.204;8.116;2022-08-05T13:32:25;1.60;;;1.50;;
24163;SDS011;12319;49.204;8.116;2022-08-05T13:34:51;1.27;;;1.20;;
24163;SDS011;12319;49.204;8.116;2022-08-05T13:37:18;1.60;;;1.40;;
24163;SDS011;12319;49.204;8.116;2022-08-05T13:39:48;1.38;;;1.30;;
24163;SDS011;12319;49.204;8.116;2022-08-05T13:42:15;1.40;;;1.30;;
24163;SDS011;12319;49.204;8.116;2022-08-05T13:44:41;1.15;;;1.05;;
24163;SDS011;12319;49.204;8.116;2022-08-05T13:47:07;1.50;;;1.40;;
24163;SDS011;12319;49.204;8.116;2022-08-05T13:49:32;1.40;;;1.30;;
24163;SDS011;12319;49.204;8.116;2022-08-05T13:52:08;1.50;;;1.40;;
24163;SDS011;12319;49.204;8.116;2022-08-05T13:54:35;1.33;;;1.23;;
24163;SDS011;12319;49.204;8.116;2022-08-05T13:57:00;1.45;;;1.30;;
24163;SDS011;12319;49.204;8.116;2022-08-05T13:59:26;1.65;;;1.30;;
24163;SDS011;12319;49.204;8.116;2022-08-05T14:01:52;1.30;;;1.20;;
24163;SDS011;12319;49.204;8.116;2022-08-05T14:04:18;1.17;;;1.17;;
24163;SDS011;12319;49.204;8.116;2022-08-05T14:07:02;1.10;;;1.10;;
24163;SDS011;12319;49.204;8.116;2022-08-05T14:09:28;1.65;;;1.30;;
24163;SDS011;12319;49.204;8.116;2022-08-05T14:11:54;1.20;;;1.20;;
24163;SDS011;12319;49.204;8.116;2022-08-05T14:14:19;2.15;;;1.35;;
24163;SDS011;12319;49.204;8.116;2022-08-05T14:16:44;1.35;;;1.25;;
24163;SDS011;12319;49.204;8.116;2022-08-05T14:19:10;1.30;;;1.20;;
24163;SDS011;12319;49.204;8.116;2022-08-05T14:21:36;1.38;;;1.27;;
24163;SDS011;12319;49.204;8.116;2022-08-05T14:24:01;1.20;;;1.20;;
24163;SDS011;12319;49.204;8.116;2022-08-05T14:26:27;1.30;;;1.20;;
24163;SDS011;12319;49.204;8.116;2022-08-05T14:28:52;1.63;;;1.27;;
24163;SDS011;12319;49.204;8.116;2022-08-05T14:31:18;1.20;;;1.10;;
24163;SDS011;12319;49.204;8.116;2022-08-05T14:33:44;1.33;;;1.23;;
24163;SDS011;12319;49.204;8.116;2022-08-05T14:36:09;0.88;;;0.88;;
24163;SDS011;12319;49.204;8.116;2022-08-05T14:38:35;1.00;;;1.00;;
24163;SDS011;12319;49.204;8.116;2022-08-05T14:41:01;1.63;;;1.17;;
24163;SDS011;12319;49.204;8.116;2022-08-05T14:43:28;1.02;;;1.00;;
24163;SDS011;12319;49.204;8.116;2022-08-05T14:45:53;1.15;;;1.08;;
24163;SDS011;12319;49.204;8.116;2022-08-05T14:48:19;1.65;;;0.90;;
24163;SDS011;12319;49.204;8.116;2022-08-05T14:50:44;0.90;;;0.90;;
24163;SDS011;12319;49.204;8.116;2022-08-05T14:53:10;1.45;;;0.80;;
24163;SDS011;12319;49.204;8.116;2022-08-05T14:55:36;1.08;;;1.00;;
24163;SDS011;12319;49.204;8.116;2022-08-05T14:58:02;1.02;;;0.95;;
24163;SDS011;12319;49.204;8.116;2022-08-05T15:00:27;0.85;;;0.85;;
24163;SDS011;12319;49.204;8.116;2022-08-05T15:02:53;1.23;;;0.95;;
24163;SDS011;12319;49.204;8.116;2022-08-05T15:05:19;1.10;;;1.00;;
24163;SDS011;12319;49.204;8.116;2022-08-05T15:07:44;3.00;;;1.00;;
24163;SDS011;12319;49.204;8.116;2022-08-05T15:10:10;1.05;;;1.00;;
24163;SDS011;12319;49.204;8.116;2022-08-05T15:12:35;0.80;;;0.80;;
24163;SDS011;12319;49.204;8.116;2022-08-05T15:15:01;0.90;;;0.90;;
24163;SDS011;12319;49.204;8.116;2022-08-05T15:17:26;0.93;;;0.90;;
24163;SDS011;12319;49.204;8.116;2022-08-05T15:19:52;1.13;;;1.00;;
24163;SDS011;12319;49.204;8.116;2022-08-05T15:22:17;0.80;;;0.80;;
24163;SDS011;12319;49.204;8.116;2022-08-05T15:24:43;0.80;;;0.80;;
24163;SDS011;12319;49.204;8.116;2022-08-05T15:27:10;0.90;;;0.90;;
24163;SDS011;12319;49.204;8.116;2022-08-05T15:29:35;1.63;;;1.10;;
24163;SDS011;12319;49.204;8.116;2022-08-05T15:32:01;2.80;;;1.30;;
24163;SDS011;12319;49.204;8.116;2022-08-05T15:34:26;1.10;;;1.00;;
24163;SDS011;12319;49.204;8.116;2022-08-05T15:36:52;1.10;;;1.00;;